createdAt,value
2023-01-13T00:03:07.732Z,7.95
2023-01-13T00:08:10.493Z,8.23
2023-01-13T00:13:13.630Z,8.10
2023-01-13T00:18:17.754Z,7.93
2023-01-13T00:23:20.463Z,7.91
2023-01-13T00:28:23.036Z,8.06
2023-01-13T00:33:27.189Z,8.22
2023-01-13T00:38:31.471Z,8.39
2023-01-13T00:43:36.131Z,7.71
2023-01-13T00:48:40.561Z,7.87
2023-01-13T00:53:46.491Z,7.77
2023-01-13T00:58:49.460Z,7.85
2023-01-13T01:03:55.164Z,7.46
2023-01-13T01:08:58.252Z,7.68
2023-01-13T01:14:03.384Z,7.51
2023-01-13T01:19:08.380Z,7.67
2023-01-13T01:24:11.331Z,7.58
2023-01-13T01:29:15.851Z,7.56
2023-01-13T01:34:20.036Z,7.48
2023-01-13T01:39:22.796Z,7.55
2023-01-13T01:45:05.062Z,7.44
2023-01-13T01:50:11.160Z,7.30
2023-01-13T01:55:17.643Z,7.31
2023-01-13T02:00:20.748Z,7.13
2023-01-13T02:05:25.061Z,7.32
2023-01-13T02:10:29.890Z,7.12
2023-01-13T02:15:42.045Z,7.03
2023-01-13T02:21:01.080Z,7.58
2023-01-13T02:26:29.223Z,7.23
2023-01-13T02:31:45.899Z,7.33
2023-01-13T02:36:53.089Z,7.31
2023-01-13T02:42:18.688Z,7.23
2023-01-13T02:47:26.061Z,7.17
2023-01-13T02:52:34.252Z,7.56
2023-01-13T02:57:39.209Z,7.36
2023-01-13T03:02:43.408Z,7.32
2023-01-13T03:08:02.209Z,7.27
2023-01-13T03:13:16.925Z,7.52
2023-01-13T03:18:37.138Z,7.33
2023-01-13T03:23:49.609Z,7.33
2023-01-13T03:28:57.541Z,7.26
2023-01-13T03:34:07.400Z,7.24
2023-01-13T03:39:16.398Z,7.25
2023-01-13T03:44:23.859Z,7.33
2023-01-13T03:49:35.987Z,7.19
2023-01-13T03:54:45.965Z,7.33
2023-01-13T03:59:54.049Z,7.54
2023-01-13T04:05:00.793Z,7.71
2023-01-13T04:10:07.246Z,7.53
2023-01-13T04:15:11.236Z,7.54
2023-01-13T04:20:15.552Z,7.56
2023-01-13T04:25:18.311Z,7.40
2023-01-13T04:30:21.075Z,7.54
2023-01-13T04:35:25.610Z,7.59
2023-01-13T04:40:28.462Z,7.13
2023-01-13T04:45:31.404Z,7.17
2023-01-13T04:50:35.663Z,7.04
2023-01-13T04:55:38.496Z,6.87
2023-01-13T05:00:41.386Z,6.90
2023-01-13T05:05:45.618Z,6.92
2023-01-13T05:10:48.422Z,7.23
2023-01-13T05:16:17.443Z,6.99
2023-01-13T05:21:39.047Z,7.20
2023-01-13T05:26:41.820Z,6.84
2023-01-13T05:31:44.692Z,6.90
2023-01-13T05:36:48.923Z,6.78
2023-01-13T05:42:09.065Z,6.92
2023-01-13T05:47:11.862Z,6.92
2023-01-13T05:52:16.097Z,6.81
2023-01-13T05:57:18.875Z,6.67
2023-01-13T06:02:21.768Z,6.66
2023-01-13T06:07:25.934Z,6.35
2023-01-13T06:12:28.800Z,6.48
2023-01-13T06:17:31.651Z,6.42
2023-01-13T06:22:39.832Z,6.70
2023-01-13T06:27:43.053Z,6.67
2023-01-13T06:32:49.026Z,6.42
2023-01-13T06:37:56.153Z,6.39
2023-01-13T06:43:22.637Z,6.28
2023-01-13T06:48:28.999Z,6.43
2023-01-13T06:53:33.262Z,6.32
2023-01-13T06:58:36.120Z,6.55
2023-01-13T07:03:38.920Z,6.33
2023-01-13T07:08:43.101Z,6.28
2023-01-13T07:14:03.371Z,6.59
2023-01-13T07:19:06.220Z,6.33
2023-01-13T07:24:10.436Z,6.51
2023-01-13T07:29:13.807Z,6.71
2023-01-13T07:34:16.795Z,6.75
2023-01-13T07:39:21.334Z,6.46
2023-01-13T07:44:24.155Z,6.50
2023-01-13T07:49:26.955Z,6.58
2023-01-13T07:54:40.292Z,6.34
2023-01-13T07:59:43.964Z,6.58
2023-01-13T08:04:46.785Z,6.51
2023-01-13T08:09:51.103Z,6.69
2023-01-13T08:14:54.107Z,6.47
2023-01-13T08:19:56.915Z,6.92
2023-01-13T08:25:01.288Z,6.83
2023-01-13T08:30:04.426Z,6.54
2023-01-13T08:35:08.417Z,6.50
2023-01-13T08:40:14.712Z,6.67
2023-01-13T08:45:17.614Z,6.61
2023-01-13T08:50:45.407Z,6.90
2023-01-13T08:55:49.542Z,6.88
2023-01-13T09:00:52.449Z,6.59
2023-01-13T09:05:55.304Z,6.53
2023-01-13T09:10:59.681Z,6.85
2023-01-13T09:16:02.619Z,7.04
2023-01-13T09:21:05.927Z,6.95
2023-01-13T09:26:10.904Z,6.90
2023-01-13T09:31:15.035Z,6.76
2023-01-13T09:36:17.940Z,7.06
2023-01-13T09:41:42.502Z,6.84
2023-01-13T09:46:52.424Z,7.00
2023-01-13T09:51:59.464Z,6.89
2023-01-13T09:57:05.929Z,6.67
2023-01-13T10:02:32.030Z,6.70
2023-01-13T10:07:39.441Z,6.78
2023-01-13T10:13:01.978Z,6.67
2023-01-13T10:18:12.475Z,6.44
2023-01-13T10:23:35.140Z,6.55
2023-01-13T10:28:39.330Z,6.97
2023-01-13T10:33:42.138Z,6.90
2023-01-13T10:38:47.083Z,7.01
2023-01-13T10:44:01.717Z,7.33
2023-01-13T10:49:25.418Z,7.22
2023-01-13T10:54:28.434Z,7.15
2023-01-13T10:59:32.615Z,7.04
2023-01-13T11:04:38.238Z,7.04
2023-01-13T11:09:41.247Z,7.37
2023-01-13T11:14:48.972Z,7.88
2023-01-13T11:19:58.419Z,8.95
2023-01-13T11:25:02.836Z,8.56
2023-01-13T11:30:17.359Z,8.92
2023-01-13T11:35:22.768Z,7.83
2023-01-13T11:40:32.267Z,8.05
2023-01-13T11:45:43.015Z,7.78
2023-01-13T11:50:53.858Z,8.03
2023-01-13T11:56:09.242Z,7.83
2023-01-13T12:01:36.730Z,7.66
2023-01-13T12:06:41.375Z,7.57
2023-01-13T12:12:16.693Z,7.39
2023-01-13T12:17:30.879Z,7.20
2023-01-13T12:22:35.971Z,6.75
2023-01-13T12:27:45.892Z,6.73
2023-01-13T12:32:54.416Z,6.57
2023-01-13T12:38:05.783Z,6.79
2023-01-13T12:43:35.358Z,7.04
2023-01-13T12:49:08.298Z,6.91
2023-01-13T12:54:25.793Z,6.78
2023-01-13T12:59:37.655Z,6.57
2023-01-13T13:04:49.717Z,6.01
2023-01-13T13:09:56.923Z,6.07
2023-01-13T13:15:19.898Z,6.32
2023-01-13T13:20:57.169Z,6.63
2023-01-13T13:26:04.695Z,6.70
2023-01-13T13:31:26.695Z,6.66
2023-01-13T13:37:07.001Z,6.59
2023-01-13T13:42:34.533Z,6.72
2023-01-13T13:47:38.124Z,7.15
2023-01-13T13:52:51.428Z,6.53
2023-01-13T13:57:55.822Z,6.97
2023-01-13T14:03:01.511Z,6.38
2023-01-13T14:08:15.644Z,6.74
2023-01-13T14:13:21.594Z,6.48
2023-01-13T14:18:25.964Z,6.79
2023-01-13T14:23:32.293Z,6.85
2023-01-13T14:28:37.689Z,7.16
2023-01-13T14:33:43.955Z,6.80
2023-01-13T14:38:50.250Z,7.12
2023-01-13T14:43:56.932Z,7.14
2023-01-13T14:49:01.940Z,6.93
2023-01-13T14:54:46.828Z,6.58
2023-01-13T14:59:51.776Z,6.78
2023-01-13T15:04:56.661Z,6.43
2023-01-13T15:10:02.523Z,6.56
2023-01-13T15:15:08.142Z,6.59
2023-01-13T15:20:16.241Z,6.14
2023-01-13T15:25:20.548Z,5.93
2023-01-13T15:30:26.062Z,5.96
2023-01-13T15:35:30.305Z,5.94
2023-01-13T15:40:34.625Z,5.80
2023-01-13T15:45:56.188Z,5.96
2023-01-13T15:50:59.034Z,6.01
2023-01-13T15:56:09.491Z,6.14
2023-01-13T16:01:13.520Z,5.98
2023-01-13T16:06:19.377Z,6.15
2023-01-13T16:11:23.568Z,5.92
2023-01-13T16:16:28.431Z,6.07
2023-01-13T16:21:31.352Z,5.89
2023-01-13T16:26:37.598Z,5.73
2023-01-13T16:31:40.542Z,5.43
2023-01-13T16:36:44.081Z,5.60
2023-01-13T16:41:48.260Z,5.74
2023-01-13T16:46:51.044Z,5.89
2023-01-13T16:51:53.816Z,5.81
2023-01-13T16:56:57.944Z,5.83
2023-01-13T17:02:01.998Z,5.67
2023-01-13T17:07:07.095Z,6.00
2023-01-13T17:12:11.666Z,6.42
2023-01-13T17:17:22.768Z,6.10
2023-01-13T17:22:25.585Z,5.75
2023-01-13T17:27:29.808Z,6.01
2023-01-13T17:32:32.648Z,6.34
2023-01-13T17:37:35.551Z,5.89
2023-01-13T17:42:39.762Z,6.02
2023-01-13T17:47:42.526Z,5.54
2023-01-13T17:52:45.267Z,5.62
2023-01-13T17:57:49.392Z,5.58
2023-01-13T18:02:52.163Z,5.43
2023-01-13T18:07:54.997Z,5.81
2023-01-13T18:12:59.133Z,5.72
2023-01-13T18:18:01.872Z,5.75
2023-01-13T18:23:22.108Z,5.97
2023-01-13T18:28:26.254Z,6.01
2023-01-13T18:33:29.014Z,5.81
2023-01-13T18:38:31.828Z,6.27
2023-01-13T18:43:36.025Z,6.06
2023-01-13T18:48:38.788Z,6.23
2023-01-13T18:53:41.578Z,5.92
2023-01-13T18:58:51.459Z,5.99
2023-01-13T19:03:58.158Z,6.01
2023-01-13T19:09:08.577Z,6.08
2023-01-13T19:14:12.728Z,6.18
2023-01-13T19:19:15.615Z,6.32
2023-01-13T19:24:18.357Z,6.57
2023-01-13T19:29:22.518Z,6.20
2023-01-13T19:34:26.429Z,6.50
2023-01-13T19:39:29.253Z,6.25
2023-01-13T19:44:51.091Z,6.26
2023-01-13T19:49:53.881Z,6.12
2023-01-13T19:54:56.810Z,6.20
2023-01-13T20:00:00.920Z,6.43
2023-01-13T20:05:06.465Z,6.39
2023-01-13T20:10:10.167Z,6.29
2023-01-13T20:15:14.789Z,6.25
2023-01-13T20:20:20.379Z,6.02
2023-01-13T20:25:23.204Z,6.04
2023-01-13T20:30:27.354Z,6.04
2023-01-13T20:35:30.323Z,5.97
2023-01-13T20:40:33.083Z,6.07
2023-01-13T20:45:37.199Z,6.11
2023-01-13T20:50:39.994Z,6.29
2023-01-13T20:55:42.873Z,6.12
2023-01-13T21:00:47.039Z,5.58
2023-01-13T21:05:49.823Z,5.82
2023-01-13T21:10:52.586Z,5.85
2023-01-13T21:15:56.908Z,5.79
2023-01-13T21:21:11.534Z,6.03
2023-01-13T21:26:15.629Z,5.75
2023-01-13T21:31:19.790Z,5.57
2023-01-13T21:36:23.057Z,5.59
2023-01-13T21:41:44.739Z,5.45
2023-01-13T21:47:02.763Z,5.61
2023-01-13T21:52:05.843Z,5.49
2023-01-13T21:57:08.632Z,5.45
2023-01-13T22:02:26.697Z,5.62
2023-01-13T22:07:29.546Z,5.78
2023-01-13T22:12:32.590Z,5.69
2023-01-13T22:17:36.945Z,5.87
2023-01-13T22:22:40.059Z,5.69
2023-01-13T22:27:44.455Z,6.10
2023-01-13T22:32:48.985Z,5.76
2023-01-13T22:37:51.721Z,5.72
2023-01-13T22:42:54.453Z,6.24
2023-01-13T22:47:59.257Z,5.89
2023-01-13T22:53:02.023Z,5.64
2023-01-13T22:58:05.930Z,6.12
2023-01-13T23:03:10.092Z,5.82
2023-01-13T23:08:13.614Z,5.58
2023-01-13T23:13:16.579Z,5.84
2023-01-13T23:18:20.694Z,5.99
2023-01-13T23:23:24.465Z,5.59
2023-01-13T23:28:27.238Z,5.69
2023-01-13T23:33:31.375Z,5.72
2023-01-13T23:38:34.582Z,5.56
2023-01-13T23:43:37.738Z,5.79
2023-01-13T23:48:41.854Z,5.60
2023-01-13T23:53:46.976Z,5.44
2023-01-13T23:58:50.864Z,5.57
